createdAt,value
2023-05-18T00:01:47.416Z,99.90
2023-05-18T00:06:58.407Z,99.90
2023-05-18T00:12:05.270Z,99.90
2023-05-18T00:17:10.646Z,99.90
2023-05-18T00:22:21.462Z,99.90
2023-05-18T00:27:26.872Z,99.90
2023-05-18T00:32:32.200Z,99.90
2023-05-18T00:37:37.815Z,99.90
2023-05-18T00:42:43.209Z,99.90
2023-05-18T00:53:29.869Z,99.90
2023-05-18T00:58:35.795Z,99.90
2023-05-18T01:03:42.683Z,99.90
2023-05-18T01:08:48.657Z,99.90
2023-05-18T01:14:14.101Z,99.90
2023-05-18T01:19:51.210Z,99.90
2023-05-18T01:25:06.160Z,99.90
2023-05-18T01:30:12.879Z,99.90
2023-05-18T01:35:19.397Z,99.90
2023-05-18T01:40:25.880Z,99.90
2023-05-18T01:46:49.689Z,99.90
2023-05-18T01:51:58.144Z,99.90
2023-05-18T01:57:04.806Z,99.90
2023-05-18T02:02:10.573Z,99.90
2023-05-18T02:07:16.300Z,99.90
2023-05-18T02:12:22.199Z,98.90
2023-05-18T02:17:27.995Z,98.80
2023-05-18T02:22:33.810Z,98.00
2023-05-18T02:27:39.551Z,96.90
2023-05-18T02:32:48.376Z,94.70
2023-05-18T02:37:55.463Z,92.80
2023-05-18T02:43:02.103Z,93.10
2023-05-18T02:48:08.923Z,91.40
2023-05-18T02:53:14.494Z,91.30
2023-05-18T02:58:21.914Z,90.50
2023-05-18T03:03:48.772Z,84.10
2023-05-18T03:08:55.949Z,86.50
2023-05-18T03:14:08.471Z,84.90
2023-05-18T03:19:16.820Z,84.50
2023-05-18T03:24:23.331Z,83.20
2023-05-18T03:29:30.672Z,82.70
2023-05-18T03:34:40.447Z,80.50
2023-05-18T03:39:46.543Z,80.30
2023-05-18T03:44:54.164Z,80.90
2023-05-18T03:50:01.022Z,72.90
2023-05-18T03:55:07.688Z,80.90
2023-05-18T04:00:14.769Z,80.40
2023-05-18T04:05:23.096Z,80.30
2023-05-18T04:10:28.701Z,80.50
2023-05-18T04:15:35.112Z,80.90
2023-05-18T04:20:40.806Z,79.80
2023-05-18T04:25:46.306Z,79.40
2023-05-18T04:30:53.131Z,66.40
2023-05-18T04:36:00.375Z,75.40
2023-05-18T04:41:10.027Z,75.90
2023-05-18T04:46:18.649Z,76.70
2023-05-18T04:51:25.240Z,73.40
2023-05-18T04:56:31.363Z,66.50
2023-05-18T05:01:36.953Z,62.30
2023-05-18T05:06:42.871Z,62.50
2023-05-18T05:11:48.534Z,61.00
2023-05-18T05:16:54.014Z,56.70
2023-05-18T05:22:00.149Z,56.30
2023-05-18T05:27:05.804Z,55.70
2023-05-18T05:32:11.934Z,56.40
2023-05-18T05:37:19.348Z,56.00
2023-05-18T05:42:27.049Z,53.80
2023-05-18T05:47:32.453Z,48.30
2023-05-18T05:52:38.196Z,54.20
2023-05-18T05:57:44.480Z,55.40
2023-05-18T06:02:50.436Z,49.60
2023-05-18T06:08:04.008Z,53.20
2023-05-18T06:13:10.291Z,52.10
2023-05-18T06:18:44.715Z,52.90
2023-05-18T06:23:51.573Z,48.30
2023-05-18T06:29:25.181Z,50.10
2023-05-18T06:40:10.345Z,49.80
2023-05-18T06:45:16.309Z,49.80
2023-05-18T06:50:34.772Z,42.60
2023-05-18T06:56:14.399Z,43.50
2023-05-18T07:01:22.988Z,46.30
2023-05-18T07:06:31.669Z,46.40
2023-05-18T07:17:44.095Z,42.40
2023-05-18T07:22:52.675Z,47.60
2023-05-18T07:27:58.581Z,45.20
2023-05-18T07:33:04.616Z,49.80
2023-05-18T07:38:10.601Z,42.10
2023-05-18T07:43:16.307Z,44.40
2023-05-18T07:48:21.663Z,50.30
2023-05-18T07:53:26.865Z,47.50
2023-05-18T07:58:36.031Z,48.00
2023-05-18T08:03:42.015Z,49.10
2023-05-18T08:08:48.385Z,44.20
2023-05-18T08:13:54.142Z,42.60
2023-05-18T08:18:59.950Z,49.80
2023-05-18T08:24:06.576Z,40.70
2023-05-18T08:29:12.060Z,49.40
2023-05-18T08:34:17.694Z,51.60
2023-05-18T08:39:24.040Z,46.00
2023-05-18T08:44:37.535Z,47.40
2023-05-18T08:49:45.269Z,55.40
2023-05-18T08:54:55.252Z,56.10
2023-05-18T09:00:04.686Z,59.90
2023-05-18T09:05:13.883Z,61.90
2023-05-18T09:10:20.410Z,63.30
2023-05-18T09:15:27.993Z,64.60
2023-05-18T09:26:01.271Z,65.60
2023-05-18T09:31:10.724Z,67.80
2023-05-18T09:36:17.348Z,68.90
2023-05-18T09:41:23.325Z,69.30
2023-05-18T09:46:37.234Z,67.80
2023-05-18T09:51:46.023Z,72.10
2023-05-18T10:02:30.264Z,73.30
2023-05-18T10:21:03.095Z,75.70
2023-05-18T10:38:30.968Z,81.00
2023-05-18T10:43:37.575Z,78.40
2023-05-18T10:48:43.233Z,81.50
2023-05-18T10:53:50.275Z,83.50
2023-05-18T10:58:57.591Z,84.20
2023-05-18T11:04:09.895Z,86.80
2023-05-18T11:09:26.287Z,85.80
2023-05-18T11:14:39.162Z,80.80
2023-05-18T11:20:05.123Z,78.10
2023-05-18T11:25:35.916Z,89.90
2023-05-18T11:36:27.635Z,90.30
2023-05-18T11:41:33.407Z,91.00
2023-05-18T11:46:42.576Z,91.70
2023-05-18T11:51:59.026Z,92.20
2023-05-18T12:09:14.272Z,89.10
2023-05-18T12:14:24.131Z,92.00
2023-05-18T12:19:29.869Z,91.60
2023-05-18T12:24:40.199Z,91.20
2023-05-18T12:29:54.271Z,91.40
2023-05-18T12:35:03.529Z,91.50
2023-05-18T12:40:13.619Z,92.20
2023-05-18T12:45:20.078Z,92.80
2023-05-18T12:50:33.488Z,93.80
2023-05-18T12:55:46.786Z,94.20
2023-05-18T13:00:52.887Z,94.90
2023-05-18T13:06:09.129Z,94.70
2023-05-18T13:11:18.073Z,94.70
2023-05-18T13:16:23.782Z,95.20
2023-05-18T13:21:32.787Z,95.90
2023-05-18T13:26:39.417Z,97.00
2023-05-18T13:31:48.410Z,97.80
2023-05-18T13:36:54.400Z,98.80
2023-05-18T13:42:10.312Z,99.90
2023-05-18T13:47:27.195Z,99.90
2023-05-18T13:52:45.722Z,99.90
2023-05-18T13:57:57.795Z,99.90
2023-05-18T14:03:24.808Z,99.90
2023-05-18T14:08:34.215Z,99.90
2023-05-18T14:13:40.233Z,99.90
2023-05-18T14:18:45.939Z,99.90
2023-05-18T14:23:51.407Z,99.90
2023-05-18T14:28:57.420Z,99.90
2023-05-18T14:34:03.200Z,99.90
2023-05-18T14:39:09.010Z,99.90
2023-05-18T14:44:15.300Z,99.90
2023-05-18T14:49:20.835Z,99.90
2023-05-18T14:54:26.300Z,99.90
2023-05-18T14:59:32.381Z,99.90
2023-05-18T15:04:38.964Z,99.90
2023-05-18T15:09:44.465Z,99.90
2023-05-18T15:14:50.219Z,99.90
2023-05-18T15:20:13.615Z,99.90
2023-05-18T15:25:25.570Z,99.90
2023-05-18T15:30:34.371Z,99.90
2023-05-18T15:35:41.135Z,99.90
2023-05-18T15:40:49.337Z,99.90
2023-05-18T15:45:57.918Z,99.90
2023-05-18T15:51:03.566Z,99.90
2023-05-18T15:56:09.992Z,99.90
2023-05-18T16:01:18.629Z,99.90
2023-05-18T16:06:24.816Z,99.90
2023-05-18T16:11:33.686Z,99.90
2023-05-18T16:16:39.424Z,99.90
2023-05-18T16:21:45.247Z,99.90
2023-05-18T16:26:51.795Z,99.90
2023-05-18T16:31:57.563Z,99.90
2023-05-18T16:37:03.299Z,99.90
2023-05-18T16:42:20.396Z,99.90
2023-05-18T16:47:33.535Z,99.90
2023-05-18T16:52:39.423Z,99.90
2023-05-18T16:57:46.245Z,99.90
2023-05-18T17:02:53.905Z,99.90
2023-05-18T17:07:59.782Z,99.90
2023-05-18T17:13:08.956Z,99.90
2023-05-18T17:24:13.137Z,99.90
2023-05-18T17:29:20.311Z,99.90
2023-05-18T17:34:32.083Z,99.90
2023-05-18T17:39:37.775Z,99.90
2023-05-18T17:44:44.978Z,99.90
2023-05-18T17:49:51.998Z,99.90
2023-05-18T17:54:58.602Z,99.90
2023-05-18T18:00:05.268Z,99.90
2023-05-18T18:05:15.918Z,99.90
2023-05-18T18:10:22.276Z,99.90
2023-05-18T18:15:28.956Z,99.90
2023-05-18T18:20:37.933Z,99.90
2023-05-18T18:25:44.897Z,99.90
2023-05-18T18:30:50.452Z,99.90
2023-05-18T18:36:01.342Z,99.90
2023-05-18T18:41:07.171Z,99.90
2023-05-18T18:46:13.607Z,99.90
2023-05-18T18:51:18.866Z,99.90
2023-05-18T18:56:24.614Z,99.90
2023-05-18T19:01:29.965Z,99.90
2023-05-18T19:06:35.951Z,99.90
2023-05-18T19:11:42.014Z,99.90
2023-05-18T19:16:47.926Z,99.90
2023-05-18T19:21:53.856Z,99.90
2023-05-18T19:26:59.296Z,99.90
2023-05-18T19:32:04.989Z,99.90
2023-05-18T19:37:10.934Z,99.90
2023-05-18T19:42:17.047Z,99.90
2023-05-18T19:47:23.082Z,99.90
2023-05-18T19:52:29.145Z,99.90
2023-05-18T19:57:34.475Z,99.90
2023-05-18T20:02:39.944Z,99.90
2023-05-18T20:07:45.491Z,99.90
2023-05-18T20:12:51.848Z,99.90
2023-05-18T20:17:57.098Z,99.90
2023-05-18T20:23:03.240Z,99.90
2023-05-18T20:28:08.796Z,99.90
2023-05-18T20:33:17.277Z,99.90
2023-05-18T20:38:27.025Z,99.90
2023-05-18T20:43:33.260Z,99.90
2023-05-18T20:48:38.747Z,99.90
2023-05-18T20:53:47.770Z,99.90
2023-05-18T20:58:53.304Z,99.90
2023-05-18T21:04:01.715Z,99.90
2023-05-18T21:09:07.788Z,99.90
2023-05-18T21:14:13.182Z,99.90
2023-05-18T21:19:18.566Z,99.90
2023-05-18T21:24:23.480Z,99.90
2023-05-18T21:29:28.629Z,99.90
2023-05-18T21:34:34.193Z,99.90
2023-05-18T21:39:41.480Z,99.90
2023-05-18T21:44:46.928Z,99.90
2023-05-18T21:49:51.752Z,99.90
2023-05-18T21:54:57.265Z,99.90
2023-05-18T22:00:04.615Z,99.90
2023-05-18T22:05:17.276Z,99.90
2023-05-18T22:10:22.742Z,99.90
2023-05-18T22:15:29.194Z,99.90
2023-05-18T22:20:35.515Z,99.90
2023-05-18T22:25:40.957Z,99.90
2023-05-18T22:30:46.691Z,99.90
2023-05-18T22:35:51.980Z,99.90
2023-05-18T22:40:57.822Z,99.90
2023-05-18T22:46:03.903Z,99.90
2023-05-18T22:51:09.957Z,99.90
2023-05-18T22:56:20.460Z,99.90
2023-05-18T23:01:25.935Z,99.90
2023-05-18T23:06:33.112Z,99.90
2023-05-18T23:11:38.583Z,99.90
2023-05-18T23:16:44.229Z,99.90
2023-05-18T23:21:49.702Z,99.90
2023-05-18T23:26:54.905Z,99.90
2023-05-18T23:32:00.010Z,99.90
2023-05-18T23:37:12.854Z,99.90
2023-05-18T23:42:20.982Z,99.90
2023-05-18T23:47:26.781Z,99.90
2023-05-18T23:52:36.334Z,99.90
2023-05-18T23:57:42.414Z,99.90
